• Join FlightAware (Why Join?)
  • Login
  • US Flag 
05:29AM EDT


 

Airport Tracker/Info


-or-


 

Live Flight TrackerFlight Track Log ✈ DAL3688 ✈ 21-Apr-2013 ✈ KDTW - KMDT

Flight Track Log - Related Links

Times and Time Zones

All times are in EDT time to prevent confusion due to time zone crossing. See the DAL3688 flight status page for this flight to view local times or setup timezone preferences in your user account.

Time Position Orientation Groundspeed Altitude Reporting Facility
EDT Latitude Longitude Course Direction KTS MPH feet Rate Location/Type
10:53AM 42.2017 -83.3544 94° East 161 185 1,800  Level FAA TRACON SMA TRACON (SMA)
10:53AM 42.1872 -83.3564 186° South 176 203 2,700 3,060 Climbing FAA TRACON SMA TRACON (SMA)
10:53AM 42.1686 -83.3575 183° South 194 223 3,800 3,420 Climbing FAA TRACON SMA TRACON (SMA)
10:54AM 42.1486 -83.3581 181° South 202 232 5,000 2,820 Climbing FAA TRACON SMA TRACON (SMA)
10:54AM 42.1294 -83.3589 182° South 232 267 5,700 2,400 Climbing FAA TRACON SMA TRACON (SMA)
10:54AM 42.1050 -83.3592 180° South 258 297 6,600 2,700 Climbing FAA TRACON SMA TRACON (SMA)
10:55AM 42.0836 -83.3564 174° South 268 308 7,500 3,420 Climbing FAA TRACON SMA TRACON (SMA)
10:55AM 42.0631 -83.3311 138° Southeast 265 305 8,900 3,420 Climbing FAA TRACON SMA TRACON (SMA)
10:55AM 42.0586 -83.3008 101° East 266 306 9,800 1,560 Climbing FAA TRACON SMA TRACON (SMA)
10:56AM 42.2167 -82.7386 90° East  Level FlightAware Approximate
10:56AM 42.0656 -83.2686 74° East 314 361 10,000  Level FAA TRACON SMA TRACON (SMA)
10:56AM 42.0756 -83.2236 73° East 337 388 10,100 120 Climbing FAA TRACON SMA TRACON (SMA)
10:56AM 42.0842 -83.1842 74° East 357 411 10,100 120 Level FAA TRACON SMA TRACON (SMA)
10:57AM 42.2167 -82.5849 90° East  Level FlightAware Approximate
10:57AM 42.0925 -83.1428 75° East 366 421 10,200  Level FAA TRACON SMA TRACON (SMA)
10:57AM 42.0992 -83.1019 78° East 317 365 10,800 1,680 Climbing Cleveland Center
10:58AM 42.2165 -82.4311 94° East  Level FlightAware Approximate
10:58AM 42.1250 -82.9628 76° East 354 407 12,500  Level Cleveland Center
10:59AM 42.1528 -82.8211 75° East 378 435 14,500 2,040 Climbing Cleveland Center
11:00AM 42.1806 -82.6764 75° East 385 443 16,600 1,620 Climbing Cleveland Center
11:01AM 42.2083 -82.5258 76° East 397 457 17,800 1,440 Climbing Cleveland Center
11:02AM 42.2169 -82.3692 86° East 403 464 19,500 1,680 Climbing Cleveland Center
11:03AM 42.2069 -82.2147 95° East 408 470 21,200 1,560 Climbing Cleveland Center
11:04AM 42.1947 -82.0378 95° East 422 486 22,700 900 Climbing Cleveland Center
11:05AM 42.1483 -81.8911 113° Southeast 419 482 23,000 540 Climbing Cleveland Center
11:06AM 42.0517 -81.7800 140° Southeast 425 489 23,800 1,020 Climbing Cleveland Center
11:07AM 41.9569 -81.6664 138° Southeast 436 502 25,100 1,140 Climbing Cleveland Center
11:08AM 41.8703 -81.5675 140° Southeast 446 513 26,100 900 Climbing Cleveland Center
11:09AM 41.7772 -81.4603 139° Southeast 446 513 27,000 420 Climbing Cleveland Center
11:10AM 41.6803 -81.3506 140° Southeast 453 521 27,000  Level Cleveland Center
11:11AM 41.5786 -81.2356 140° Southeast 469 540 27,000  Level Cleveland Center
11:12AM 41.4836 -81.0847 130° Southeast 476 548 27,000  Level Cleveland Center
11:13AM 41.4217 -80.9236 117° Southeast 482 555 27,000  Level Cleveland Center
11:14AM 41.3575 -80.7603 118° Southeast 489 563 27,000  Level Cleveland Center
11:15AM 41.2950 -80.5969 117° Southeast 495 570 27,000  Level Cleveland Center
11:16AM 41.2325 -80.4367 117° Southeast 490 564 27,000  Level Cleveland Center
11:17AM 41.1758 -80.2908 117° Southeast 490 564 27,000  Level Cleveland Center
11:18AM 41.1086 -80.1256 118° Southeast 495 570 27,000 -180 Level Cleveland Center
11:19AM 41.0453 -79.9664 118° Southeast 495 570 26,700 -720 Descending Cleveland Center
11:20AM 40.9817 -79.8075 118° Southeast 495 570 25,600 -1,080 Descending Cleveland Center
11:21AM 40.9203 -79.6544 118° Southeast 488 562 24,600 -840 Descending Cleveland Center
11:22AM 40.8564 -79.5014 119° Southeast 483 556 24,000 -600 Descending Cleveland Center
11:23AM 40.7964 -79.3517 118° Southeast 471 542 23,400 -840 Descending Cleveland Center
11:24AM 40.7364 -79.2019 118° Southeast 466 536 22,400 -1,020 Descending Cleveland Center
11:25AM 40.6739 -79.0528 119° Southeast 461 531 21,400 -1,020 Descending Cleveland Center
11:26AM 40.6028 -78.8903 120° Southeast 461 531 20,400 -1,020 Descending Cleveland Center
11:27AM 40.5442 -78.7417 117° Southeast 456 525 19,400 -1,020 Descending Cleveland Center
11:28AM 40.5206 -78.5783 101° East 446 513 18,400 -720 Descending Cleveland Center
11:29AM 40.5014 -78.4314 100° East 446 513 18,000 -660 Descending Cleveland Center
11:30AM 40.4847 -78.3250 102° East 447 514 17,400 -1,020 Descending New York Center
11:31AM 40.4667 -78.1839 100° East 441 507 16,400 -1,020 Descending New York Center
11:32AM 40.4444 -78.0342 101° East 431 496 15,400 -1,020 Descending New York Center
11:33AM 40.4244 -77.8847 100° East 420 483 14,400 -1,020 Descending New York Center
11:34AM 40.4017 -77.7406 102° East 414 476 13,400 -1,080 Descending New York Center
11:35AM 40.3756 -77.5825 102° East 409 471 12,300 -1,080 Descending New York Center
11:36AM 40.3564 -77.4444 100° East 398 458 11,300 -1,080 Descending New York Center
11:37AM 40.3183 -77.3428 116° Southeast 328 377 10,200 -1,200 Descending New York Center
11:38AM 40.2794 -77.2547 120° Southeast 294 338 9,000 -1,260 Descending New York Center
11:39AM 40.2422 -77.1697 120° Southeast 278 320 7,700 -1,200 Descending New York Center
11:40AM 40.2031 -77.0844 121° Southeast 272 313 6,600 -1,200 Descending New York Center
11:41AM 40.1636 -77.0019 122° Southeast 266 306 5,300 -900 Descending New York Center
11:42AM 40.1300 -76.9283 121° Southeast 266 306 4,900 -720 Descending New York Center
11:43AM 40.1056 -76.8367 109° East 248 285 3,900 -480 Descending New York Center
11:44AM 40.0950 -76.7597 100° East 237 273 4,000 60 Climbing New York Center